RU-0405 weather

Novotitarovskaya Airstrip
Novotitarovskaya, Krasnodar Krai, Russia

Public forecast

Using degrees Celsius for public forecast. Weather courtesy of forecast.io.

METAR (pilot weather report)

Closest report is Krasnodar Pashkovsky International Airport, 13.5 nm (25.0 km) SSE. Retrieved 2019/08/18 05:30 UTC (28 minutes ago):

URKK 180530Z 32004MPS 7000 -SHRA SCT034CB SCT034 19/18 Q1010 R23L/290060 TEMPO 1000 SHRA SCT005 BKN020CB RMK QFE754

TAF (pilot weather forecast)

Closest forecast is Krasnodar Pashkovsky International Airport, 13.5 nm (25.0 km) SSE. Retrieved 2019/08/18 03:24 UTC (3 hours ago):

TAF URKK 180158Z 1803/1903 30003G08MPS 9999 SCT030CB TEMPO 1803/1824 VRB07G14MPS 3100 -TSRA SCT011 BKN020CB